WetterOnline ( https://www.wetteronline.ch )

Wetter aktuell Osterfeld

Aktuelles Wetter: Osterfeld (246m)

6-stündlich | Neueste Meldungen
Ortszeit Temperatur Wetter
Do, 13.08. 2:00 21.1° C fast wolkenlos
Mi, 12.08. 20:00 26.2° C bedeckt
Mi, 12.08. 14:00 31.9° C leicht bewölkt
Mi, 12.08. 8:00 19.8° C wolkenlos
Mi, 12.08. 2:00 19.8° C wolkenlos
Di, 11.08. 20:00 26.9° C wolkenlos
Di, 11.08. 14:00 30.9° C fast wolkenlos
Di, 11.08. 8:00 20.1° C wolkig
Ortszeit Temperatur Wetter
Do, 13.08. 2:00 21.1° C fast wolkenlos
Do, 13.08. 1:50 21.1° C fast wolkenlos
Do, 13.08. 1:40 20.9° C leicht bewölkt
Do, 13.08. 1:30 20.4° C bewölkt
Do, 13.08. 1:20 20.4° C bewölkt
Do, 13.08. 1:10 20.8° C wolkig
Do, 13.08. 1:00 21.6° C wolkenlos
Do, 13.08. 0:30 21.4° C wolkenlos
Do, 13.08. 0:00 21.5° C fast wolkenlos
Mi, 12.08. 23:30 22.1° C wolkig
Mi, 12.08. 23:00 23.4° C leicht bewölkt
Ortszeit Relative Feuchte Sichtweite
Do, 13.08. 2:00 71% 11 km
Mi, 12.08. 20:00 52% 11 km
Mi, 12.08. 14:00 31% 11 km
Mi, 12.08. 8:00 72% 11 km
Mi, 12.08. 2:00 75% 11 km
Di, 11.08. 20:00 43% 11 km
Di, 11.08. 14:00 41% 11 km
Di, 11.08. 8:00 88% 11 km
Ortszeit Relative Feuchte Sichtweite
Do, 13.08. 2:00 71% 11 km
Do, 13.08. 1:50 71% -
Do, 13.08. 1:40 72% -
Do, 13.08. 1:30 74% 11 km
Do, 13.08. 1:20 74% -
Do, 13.08. 1:10 72% -
Do, 13.08. 1:00 69% 11 km
Do, 13.08. 0:30 70% 11 km
Do, 13.08. 0:00 70% 11 km
Mi, 12.08. 23:30 66% 11 km
Mi, 12.08. 23:00 60% 11 km
Ortszeit Niederschlagsmenge Niederschlagsart
Do, 13.08. 2:00 0.0 l/m2 in 6 Std. -
Mi, 12.08. 20:00 0.0 l/m2 in 12 Std. -
Mi, 12.08. 14:00 0.0 l/m2 in 6 Std. -
Mi, 12.08. 8:00 0.0 l/m2 in 12 Std. -
Mi, 12.08. 2:00 0.0 l/m2 in 6 Std. -
Di, 11.08. 20:00 0.8 l/m2 in 12 Std. Regen
Di, 11.08. 14:00 0.0 l/m2 in 6 Std. -
Di, 11.08. 8:00 6 l/m2 in 12 Std. Regen
Ortszeit Niederschlagsmenge Niederschlagsart
Do, 13.08. 2:00 0.0 l/m2 in 1 Std. -
Do, 13.08. 1:50 keine Meldung -
Do, 13.08. 1:40 keine Meldung -
Do, 13.08. 1:30 0.0 l/m2 in 1 Std. -
Do, 13.08. 1:20 keine Meldung -
Do, 13.08. 1:10 keine Meldung -
Do, 13.08. 1:00 0.0 l/m2 in 1 Std. -
Do, 13.08. 0:30 0.0 l/m2 in 1 Std. -
Do, 13.08. 0:00 0.0 l/m2 in 1 Std. -
Mi, 12.08. 23:30 0.0 l/m2 in 1 Std. -
Mi, 12.08. 23:00 0.0 l/m2 in 1 Std. -
Ortszeit Stärke Spitze Richtung
km/h Bft. km/h Grad Sektor
Do, 13.08. 2:00 4 1 18 170° S
Mi, 12.08. 20:00 7 2 29 190° S
Mi, 12.08. 14:00 11 2 32 90° O
Mi, 12.08. 8:00 4 1 14 200° S
Mi, 12.08. 2:00 6 1 19 80° O
Di, 11.08. 20:00 7 2 47 120° SO
Di, 11.08. 14:00 14 3 29 100° O
Di, 11.08. 8:00 2 1 20 260° W
Ortszeit Stärke Spitze Richtung
km/h Bft. km/h Grad Sektor
Do, 13.08. 2:00 4 1 7 170° S
Do, 13.08. 1:50 4 1 - 170° S
Do, 13.08. 1:40 4 1 - 170° S
Do, 13.08. 1:30 4 1 7 160° S
Do, 13.08. 1:20 4 1 - 160° S
Do, 13.08. 1:10 2 1 - 200° S
Do, 13.08. 1:00 4 1 7 180° S
Do, 13.08. 0:30 6 1 7 120° SO
Do, 13.08. 0:00 2 1 9 190° S
Mi, 12.08. 23:30 4 1 7 250° W
Mi, 12.08. 23:00 7 2 19 80° O
Ortszeit Untergrenze Bedeckung Gattung
total tief tief mittel hoch
Do, 13.08. 2:00 5100 m 1/8 1/8 - - -
Mi, 12.08. 20:00 3000 m 8/8 8/8 - - -
Mi, 12.08. 14:00 2100 m 2/8 2/8 - - -
Mi, 12.08. 8:00 - 0/8 0/8 - - -
Mi, 12.08. 2:00 - 0/8 0/8 - - -
Di, 11.08. 20:00 - 0/8 0/8 - - -
Di, 11.08. 14:00 1500 m 1/8 1/8 - - -
Di, 11.08. 8:00 3600 m 6/8 6/8 - - -
Ortszeit Bedeckungsgrad in Achtel und Wolkenuntergrenze
Do, 13.08. 2:00 1(5100m)
Do, 13.08. 1:50 1(5100m)
Do, 13.08. 1:40 3(5100m)
Do, 13.08. 1:30 7(5100m)
Do, 13.08. 1:20 7(5100m)
Do, 13.08. 1:10 6(5100m)
Do, 13.08. 1:00 4(5100m)
Do, 13.08. 0:30 keine Wolken
Do, 13.08. 0:00 1(10500m)
Mi, 12.08. 23:30 6(3900m) 6(4800m)
Mi, 12.08. 23:00 3(4800m) 6(4800m)
Ortszeit Luftdruck NN (hPa) Tendenz (hPa in 3 Std.)
Do, 13.08. 2:00 1015 - 0,3
Mi, 12.08. 20:00 1015 0,0
Mi, 12.08. 14:00 1016 - 1,1
Mi, 12.08. 8:00 1018 + 0,4
Mi, 12.08. 2:00 1018 + 0,2
Di, 11.08. 20:00 1017 - 0,4
Di, 11.08. 14:00 1017 - 0,7
Di, 11.08. 8:00 1018 + 0,4
Ortszeit Luftdruck NN (hPa) Tendenz (hPa in 3 Std.)
Do, 13.08. 2:00 1015 - 0,3
Do, 13.08. 1:50 1015 keine Meldung
Do, 13.08. 1:40 1015 keine Meldung
Do, 13.08. 1:30 1015 - 0,2
Do, 13.08. 1:20 1015 keine Meldung
Do, 13.08. 1:10 1015 keine Meldung
Do, 13.08. 1:00 1015 - 0,3
Do, 13.08. 0:30 1015 - 0,2
Do, 13.08. 0:00 1015 - 0,1
Mi, 12.08. 23:30 1015 0,0
Mi, 12.08. 23:00 1015 - 0,2
Ortszeit Schneehöhe (cm)
Do, 13.08. 2:00 -
Mi, 12.08. 20:00 -
Mi, 12.08. 14:00 -
Mi, 12.08. 8:00 -
Mi, 12.08. 2:00 -
Di, 11.08. 20:00 -
Di, 11.08. 14:00 -
Di, 11.08. 8:00 -
Ortszeit Schneehöhe (cm)
Do, 13.08. 2:00 -
Do, 13.08. 1:50 -
Do, 13.08. 1:40 -
Do, 13.08. 1:30 -
Do, 13.08. 1:20 -
Do, 13.08. 1:10 -
Do, 13.08. 1:00 -
Do, 13.08. 0:30 -
Do, 13.08. 0:00 -
Mi, 12.08. 23:30 -
Mi, 12.08. 23:00 -
Link zu dieser Seite / Seite empfehlen

Das Wetter in ...